CheckWX is a tool to help pilots better visualize weather data.  It is not intended as a substitute for an official pre-flight weather briefing.

08:27:06 UTC

HTKA METAR
Kigoma Airport
Kigoma, Tanzania
Current

1 hour ago

HTKA 220700Z 00000KT 9999 FEW021 FEW022CB 27/19 Q1017
Observed
Mar-22 @ 07:00 UTC
Visibility
10,000+ meters
Flight Rules
VFR
Cloud Levels
  • Few at 2,100' AGL
  • Few at 2,200' AGL
Temperature
27°C / 81°F
Dewpoint
19°C / 66°F
Humidity
62%
Altimeter
30.03" Hg
Pressure
1016.92 hPa
Previous

2 hours ago

HTKA 220600Z 00000KT 9999 FEW020 FEW021CB 23/19 Q1016
Observed
Mar-22 @ 06:00 UTC
Visibility
10,000+ meters
Flight Rules
VFR
Cloud Levels
  • Few at 2,000' AGL
  • Few at 2,100' AGL
Temperature
23°C / 73°F
Dewpoint
19°C / 66°F
Humidity
78%
Altimeter
30" Hg
Pressure
1015.92 hPa
Previous

3 hours ago

HTKA 220500Z 00000KT 9999 FEW018 FEW019CB 20/18 Q1016
Observed
Mar-22 @ 05:00 UTC
Visibility
10,000+ meters
Flight Rules
VFR
Cloud Levels
  • Few at 1,800' AGL
  • Few at 1,900' AGL
Temperature
20°C / 68°F
Dewpoint
18°C / 64°F
Humidity
88%
Altimeter
30" Hg
Pressure
1015.92 hPa